createdAt,value
2019-02-19T00:02:24.220Z,-1.10
2019-02-19T00:04:55.577Z,-1.26
2019-02-19T00:07:27.043Z,-1.14
2019-02-19T00:09:58.485Z,-1.18
2019-02-19T00:12:29.918Z,-1.23
2019-02-19T00:15:07.877Z,-1.23
2019-02-19T00:17:34.309Z,-1.14
2019-02-19T00:20:05.695Z,-1.21
2019-02-19T00:22:37.017Z,-1.11
2019-02-19T00:25:08.507Z,-1.09
2019-02-19T00:27:39.933Z,-1.11
2019-02-19T00:30:11.258Z,-1.17
2019-02-19T00:32:42.635Z,-1.23
2019-02-19T00:35:14.351Z,-0.94
2019-02-19T00:37:45.687Z,-1.24
2019-02-19T00:40:17.313Z,-1.29
2019-02-19T00:42:48.638Z,-1.12
2019-02-19T00:45:20.292Z,-1.12
2019-02-19T00:47:51.608Z,-1.30
2019-02-19T00:50:23.121Z,-1.17
2019-02-19T00:52:54.557Z,-1.23
2019-02-19T00:55:26.019Z,-1.16
2019-02-19T00:57:57.467Z,-1.30
2019-02-19T01:00:28.853Z,-1.22
2019-02-19T01:03:00.282Z,-1.33
2019-02-19T01:05:31.715Z,-1.51
2019-02-19T01:08:03.169Z,-1.36
2019-02-19T01:10:34.659Z,-1.32
2019-02-19T01:13:06.089Z,-1.50
2019-02-19T01:15:37.644Z,-1.34
2019-02-19T01:18:09.096Z,-1.46
2019-02-19T01:20:40.533Z,-1.47
2019-02-19T01:23:11.860Z,-1.44
2019-02-19T01:25:43.314Z,-1.63
2019-02-19T01:28:14.641Z,-1.65
2019-02-19T01:30:46.042Z,-1.42
2019-02-19T01:33:17.580Z,-1.43
2019-02-19T01:35:50.170Z,-1.43
2019-02-19T01:38:21.597Z,-1.56
2019-02-19T01:40:53.033Z,-1.58
2019-02-19T01:43:24.372Z,-1.81
2019-02-19T01:45:55.838Z,-1.65
2019-02-19T01:48:27.197Z,-1.77
2019-02-19T01:50:58.500Z,-1.63
2019-02-19T01:53:29.811Z,-1.71
2019-02-19T01:56:01.189Z,-1.94
2019-02-19T01:58:32.527Z,-1.87
2019-02-19T02:01:03.872Z,-2.05
2019-02-19T02:03:35.232Z,-2.02
2019-02-19T02:06:06.738Z,-2.04
2019-02-19T02:08:38.183Z,-2.05
2019-02-19T02:11:09.625Z,-1.87
2019-02-19T02:13:40.942Z,-1.78
2019-02-19T02:16:12.419Z,-1.93
2019-02-19T02:18:43.868Z,-2.16
2019-02-19T02:21:15.310Z,-2.17
2019-02-19T02:23:46.694Z,-2.22
2019-02-19T02:26:18.211Z,-2.37
2019-02-19T02:28:49.663Z,-2.31
2019-02-19T02:31:21.238Z,-2.33
2019-02-19T02:33:52.866Z,-2.43
2019-02-19T02:36:24.241Z,-2.26
2019-02-19T02:38:55.496Z,-2.36
2019-02-19T02:41:26.870Z,-2.29
2019-02-19T02:43:58.198Z,-2.28
2019-02-19T02:46:29.638Z,-2.31
2019-02-19T02:49:01.067Z,-2.27
2019-02-19T02:51:32.522Z,-2.42
2019-02-19T02:54:03.973Z,-2.41
2019-02-19T02:56:35.418Z,-2.64
2019-02-19T02:59:06.719Z,-2.64
2019-02-19T03:01:38.532Z,-2.60
2019-02-19T03:04:09.863Z,-2.44
2019-02-19T03:06:48.581Z,-2.57
2019-02-19T03:09:19.923Z,-2.79
2019-02-19T03:11:51.292Z,-2.72
2019-02-19T03:14:22.683Z,-2.83
2019-02-19T03:16:54.024Z,-2.75
2019-02-19T03:19:25.439Z,-2.72
2019-02-19T03:21:56.933Z,-2.91
2019-02-19T03:24:28.382Z,-2.89
2019-02-19T03:26:59.915Z,-2.94
2019-02-19T03:29:31.345Z,-2.85
2019-02-19T03:32:02.689Z,-2.81
2019-02-19T03:34:34.156Z,-2.75
2019-02-19T03:37:05.489Z,-2.74
2019-02-19T03:39:38.099Z,-2.92
2019-02-19T03:42:09.457Z,-2.88
2019-02-19T03:44:40.824Z,-2.96
2019-02-19T03:47:12.158Z,-2.86
2019-02-19T03:49:43.684Z,-2.84
2019-02-19T03:52:15.113Z,-2.91
2019-02-19T03:54:46.575Z,-2.81
2019-02-19T03:57:18.004Z,-2.82
2019-02-19T03:59:49.451Z,-2.97
2019-02-19T04:02:20.849Z,-2.92
2019-02-19T04:04:52.297Z,-2.95
2019-02-19T04:07:23.675Z,-3.04
2019-02-19T04:09:55.145Z,-2.98
2019-02-19T04:12:26.542Z,-2.90
2019-02-19T04:14:57.857Z,-3.19
2019-02-19T04:17:29.206Z,-3.14
2019-02-19T04:20:00.462Z,-3.02
2019-02-19T04:22:31.527Z,-3.10
2019-02-19T04:25:02.889Z,-3.10
2019-02-19T04:27:34.299Z,-3.07
2019-02-19T04:30:07.459Z,-3.28
2019-02-19T04:32:38.843Z,-3.16
2019-02-19T04:35:10.162Z,-3.26
2019-02-19T04:37:41.506Z,-3.37
2019-02-19T04:40:12.880Z,-3.48
2019-02-19T04:42:44.345Z,-3.17
2019-02-19T04:45:15.707Z,-3.35
2019-02-19T04:47:47.084Z,-3.53
2019-02-19T04:50:19.855Z,-3.40
2019-02-19T04:52:51.223Z,-3.52
2019-02-19T04:55:23.022Z,-3.31
2019-02-19T04:57:54.408Z,-3.39
2019-02-19T05:00:25.805Z,-3.41
2019-02-19T05:02:57.173Z,-3.42
2019-02-19T05:05:28.605Z,-3.46
2019-02-19T05:08:00.040Z,-3.32
2019-02-19T05:10:32.640Z,-3.32
2019-02-19T05:13:04.068Z,-3.12
2019-02-19T05:15:35.499Z,-3.02
2019-02-19T05:18:06.974Z,-3.06
2019-02-19T05:20:38.448Z,-3.09
2019-02-19T05:23:09.972Z,-3.02
2019-02-19T05:25:41.519Z,-2.99
2019-02-19T05:28:13.123Z,-2.88
2019-02-19T05:30:44.519Z,-2.90
2019-02-19T05:33:15.986Z,-2.64
2019-02-19T05:35:47.436Z,-2.61
2019-02-19T05:38:19.005Z,-2.53
2019-02-19T05:40:50.440Z,-2.48
2019-02-19T05:46:26.275Z,-2.35
2019-02-19T05:48:57.721Z,-2.28
2019-02-19T05:51:30.622Z,-2.13
2019-02-19T05:54:02.040Z,-2.09
2019-02-19T05:56:33.446Z,-1.84
2019-02-19T05:59:04.792Z,-1.87
2019-02-19T06:01:36.244Z,-1.75
2019-02-19T06:04:07.776Z,-1.62
2019-02-19T06:06:40.737Z,-1.52
2019-02-19T06:09:12.054Z,-1.48
2019-02-19T06:11:43.403Z,-1.34
2019-02-19T06:14:14.733Z,-1.25
2019-02-19T06:16:46.598Z,-1.27
2019-02-19T06:19:18.314Z,-1.07
2019-02-19T06:21:49.687Z,-1.10
2019-02-19T06:24:21.077Z,-0.96
2019-02-19T06:26:52.501Z,-0.77
2019-02-19T06:29:23.923Z,-0.71
2019-02-19T06:31:55.425Z,-0.58
2019-02-19T06:34:26.768Z,-0.47
2019-02-19T06:36:58.297Z,-0.42
2019-02-19T06:39:29.659Z,-0.43
2019-02-19T06:42:01.037Z,-0.15
2019-02-19T06:44:32.524Z,-0.07
2019-02-19T06:47:06.875Z,-0.06
2019-02-19T06:49:36.933Z,-0.11
2019-02-19T06:52:08.313Z,0.11
2019-02-19T06:54:39.760Z,0.31
2019-02-19T06:57:12.142Z,0.34
2019-02-19T06:59:43.618Z,0.18
2019-02-19T07:02:16.706Z,0.43
2019-02-19T07:04:49.139Z,0.55
2019-02-19T07:07:20.806Z,0.57
2019-02-19T07:09:52.200Z,0.56
2019-02-19T07:12:23.705Z,0.45
2019-02-19T07:14:55.153Z,0.71
2019-02-19T07:17:26.591Z,0.92
2019-02-19T07:19:57.876Z,0.85
2019-02-19T07:22:29.291Z,0.92
2019-02-19T07:25:01.927Z,0.91
2019-02-19T07:27:33.428Z,1.24
2019-02-19T07:30:09.579Z,1.18
2019-02-19T07:32:40.947Z,1.18
2019-02-19T07:35:12.440Z,1.28
2019-02-19T07:37:43.686Z,1.31
2019-02-19T07:40:14.735Z,1.48
2019-02-19T07:42:46.092Z,1.53
2019-02-19T07:45:17.494Z,1.62
2019-02-19T07:47:48.808Z,1.67
2019-02-19T07:50:20.209Z,1.51
2019-02-19T07:52:51.556Z,1.72
2019-02-19T07:55:22.899Z,1.72
2019-02-19T07:57:54.405Z,1.91
2019-02-19T08:00:25.719Z,2.07
2019-02-19T08:02:57.065Z,2.12
2019-02-19T08:05:28.562Z,2.22
2019-02-19T08:08:01.285Z,2.34
2019-02-19T08:10:32.741Z,2.51
2019-02-19T08:13:04.092Z,2.54
2019-02-19T08:15:35.419Z,2.70
2019-02-19T08:18:06.818Z,2.69
2019-02-19T08:20:38.224Z,2.76
2019-02-19T08:23:09.656Z,2.84
2019-02-19T08:25:41.062Z,2.88
2019-02-19T08:28:12.391Z,2.88
2019-02-19T08:30:43.740Z,2.98
2019-02-19T08:33:15.118Z,3.02
2019-02-19T08:35:46.530Z,3.09
2019-02-19T08:38:17.856Z,3.04
2019-02-19T08:40:49.195Z,3.33
2019-02-19T08:43:20.613Z,3.07
2019-02-19T08:45:51.984Z,3.00
2019-02-19T08:48:23.446Z,3.42
2019-02-19T08:50:54.811Z,3.33
2019-02-19T08:53:26.184Z,3.25
2019-02-19T08:55:57.600Z,3.36
2019-02-19T08:58:29.039Z,3.64
2019-02-19T09:01:00.488Z,3.61
2019-02-19T09:03:31.918Z,3.65
2019-02-19T09:06:03.345Z,3.79
2019-02-19T09:08:34.625Z,3.65
2019-02-19T09:11:06.012Z,3.70
2019-02-19T09:13:37.355Z,3.70
2019-02-19T09:16:08.699Z,3.89
2019-02-19T09:18:40.031Z,4.04
2019-02-19T09:21:11.641Z,4.03
2019-02-19T09:23:42.841Z,3.97
2019-02-19T09:26:14.326Z,4.05
2019-02-19T09:28:45.715Z,4.13
2019-02-19T09:31:17.054Z,4.12
2019-02-19T09:33:48.425Z,4.10
2019-02-19T09:36:19.709Z,4.29
2019-02-19T09:38:51.070Z,4.32
2019-02-19T09:41:22.293Z,4.51
2019-02-19T09:43:53.614Z,4.46
2019-02-19T09:46:24.990Z,4.53
2019-02-19T09:48:56.300Z,4.90
2019-02-19T09:51:28.713Z,4.86
2019-02-19T09:54:00.078Z,4.94
2019-02-19T09:56:31.351Z,4.88
2019-02-19T09:59:02.629Z,4.34
2019-02-19T10:01:34.097Z,4.49
2019-02-19T10:04:05.456Z,4.94
2019-02-19T10:06:36.832Z,4.93
2019-02-19T10:09:09.642Z,5.07
2019-02-19T10:11:40.900Z,4.94
2019-02-19T10:14:12.220Z,4.97
2019-02-19T10:16:43.479Z,4.97
2019-02-19T10:19:14.773Z,4.32
2019-02-19T10:21:46.224Z,4.61
2019-02-19T10:24:17.608Z,4.63
2019-02-19T10:26:49.700Z,4.84
2019-02-19T10:29:22.665Z,5.10
2019-02-19T10:31:54.045Z,4.93
2019-02-19T10:34:25.319Z,5.04
2019-02-19T10:36:56.542Z,5.05
2019-02-19T10:39:27.822Z,5.17
2019-02-19T10:41:59.118Z,5.41
2019-02-19T10:44:30.359Z,5.38
2019-02-19T10:47:01.711Z,5.24
2019-02-19T10:49:33.104Z,5.32
2019-02-19T10:52:04.418Z,5.26
2019-02-19T10:54:35.824Z,5.37
2019-02-19T10:57:07.198Z,5.31
2019-02-19T10:59:38.529Z,5.22
2019-02-19T11:02:09.919Z,5.27
2019-02-19T11:04:41.232Z,5.29
2019-02-19T11:07:12.564Z,5.41
2019-02-19T11:09:43.940Z,5.38
2019-02-19T11:12:15.361Z,5.49
2019-02-19T11:14:46.738Z,5.65
2019-02-19T11:17:19.817Z,5.46
2019-02-19T11:19:51.037Z,5.57
2019-02-19T11:22:22.435Z,5.44
2019-02-19T11:24:53.849Z,5.23
2019-02-19T11:27:25.412Z,5.37
2019-02-19T11:29:56.851Z,5.49
2019-02-19T11:32:28.272Z,5.12
2019-02-19T11:34:59.571Z,5.15
2019-02-19T11:37:32.103Z,5.09
2019-02-19T11:40:03.433Z,5.17
2019-02-19T11:42:34.777Z,5.13
2019-02-19T11:45:09.380Z,5.42
2019-02-19T11:47:40.777Z,5.27
2019-02-19T11:50:13.102Z,5.35
2019-02-19T11:52:44.431Z,5.45
2019-02-19T11:55:18.002Z,5.37
2019-02-19T11:57:49.327Z,5.50
2019-02-19T12:00:22.263Z,5.40
2019-02-19T12:02:53.617Z,5.55
2019-02-19T12:05:24.922Z,5.36
2019-02-19T12:07:56.233Z,5.61
2019-02-19T12:10:27.549Z,5.72
2019-02-19T12:13:00.718Z,5.67
2019-02-19T12:15:35.272Z,5.70
2019-02-19T12:18:05.067Z,5.75
2019-02-19T12:20:36.490Z,5.66
2019-02-19T12:23:07.699Z,5.44
2019-02-19T12:25:38.915Z,5.44
2019-02-19T12:28:10.299Z,5.58
2019-02-19T12:30:41.531Z,5.51
2019-02-19T12:33:12.934Z,5.37
2019-02-19T12:35:44.176Z,5.41
2019-02-19T12:38:15.441Z,5.52
2019-02-19T12:40:46.812Z,5.40
2019-02-19T12:43:18.134Z,5.52
2019-02-19T12:45:49.525Z,5.53
2019-02-19T12:48:20.898Z,5.60
2019-02-19T12:50:53.387Z,5.51
2019-02-19T12:53:24.834Z,5.48
2019-02-19T12:55:56.183Z,5.49
2019-02-19T12:58:27.638Z,5.31
2019-02-19T13:00:59.005Z,5.27
2019-02-19T13:03:30.398Z,5.31
2019-02-19T13:06:01.804Z,5.20
2019-02-19T13:08:33.297Z,5.23
2019-02-19T13:11:04.704Z,5.16
2019-02-19T13:13:36.065Z,5.17
2019-02-19T13:16:07.411Z,5.13
2019-02-19T13:18:38.757Z,5.09
2019-02-19T13:21:10.093Z,4.94
2019-02-19T13:23:41.493Z,4.94
2019-02-19T13:26:12.828Z,4.91
2019-02-19T13:28:44.251Z,4.71
2019-02-19T13:31:15.603Z,4.77
2019-02-19T13:33:46.949Z,4.77
2019-02-19T13:36:18.328Z,4.70
2019-02-19T13:38:49.663Z,4.65
2019-02-19T13:41:21.126Z,4.70
2019-02-19T13:43:52.542Z,4.69
2019-02-19T13:46:23.910Z,4.52
2019-02-19T13:48:55.313Z,4.52
2019-02-19T13:51:26.687Z,4.41
2019-02-19T13:53:59.568Z,4.33
2019-02-19T13:56:30.996Z,4.29
2019-02-19T13:59:02.374Z,4.23
2019-02-19T14:01:33.801Z,4.24
2019-02-19T14:04:05.166Z,4.23
2019-02-19T14:06:36.918Z,4.10
2019-02-19T14:09:09.249Z,4.05
2019-02-19T14:11:40.792Z,4.05
2019-02-19T14:14:13.835Z,3.85
2019-02-19T14:16:46.731Z,3.92
2019-02-19T14:19:21.549Z,3.93
2019-02-19T14:21:54.250Z,3.75
2019-02-19T14:24:43.513Z,3.70
2019-02-19T14:27:25.359Z,3.58
2019-02-19T14:30:16.595Z,3.42
2019-02-19T14:32:58.783Z,3.52
2019-02-19T14:35:34.592Z,3.36
2019-02-19T14:38:16.136Z,3.26
2019-02-19T14:41:05.135Z,3.22
2019-02-19T14:43:54.294Z,3.22
2019-02-19T14:46:36.197Z,3.03
2019-02-19T14:49:34.099Z,3.12
2019-02-19T14:51:59.016Z,3.00
2019-02-19T14:54:48.065Z,3.10
2019-02-19T14:57:24.042Z,3.12
2019-02-19T14:59:57.238Z,2.91
2019-02-19T15:02:46.494Z,2.86
2019-02-19T15:05:19.476Z,2.68
2019-02-19T15:08:08.596Z,2.64
2019-02-19T15:10:57.673Z,2.65
2019-02-19T15:13:30.577Z,2.58
2019-02-19T15:16:15.356Z,2.44
2019-02-19T15:18:54.270Z,2.40
2019-02-19T15:21:27.172Z,2.37
2019-02-19T15:24:00.171Z,2.30
2019-02-19T15:26:36.013Z,2.29
2019-02-19T15:29:14.578Z,2.22
2019-02-19T15:31:50.354Z,2.10
2019-02-19T15:34:41.587Z,2.10
2019-02-19T15:37:14.536Z,2.08
2019-02-19T15:40:03.788Z,2.08
2019-02-19T15:42:36.762Z,2.00
2019-02-19T15:45:11.031Z,2.03
2019-02-19T15:47:52.987Z,1.94
2019-02-19T15:50:41.976Z,1.95
2019-02-19T15:53:17.828Z,2.14
2019-02-19T15:56:07.229Z,1.91
2019-02-19T15:58:46.140Z,1.82
2019-02-19T16:01:28.343Z,1.81
2019-02-19T16:04:10.097Z,1.74
2019-02-19T16:06:43.115Z,1.75
2019-02-19T16:09:21.836Z,1.59
2019-02-19T16:12:03.788Z,1.55
2019-02-19T16:14:36.746Z,1.44
2019-02-19T16:17:12.470Z,1.34
2019-02-19T16:19:45.437Z,1.28
2019-02-19T16:22:18.376Z,1.32
2019-02-19T16:25:09.154Z,1.24
2019-02-19T16:27:58.046Z,1.11
2019-02-19T16:30:47.278Z,0.99
2019-02-19T16:33:20.220Z,1.15
2019-02-19T16:35:58.809Z,1.16
2019-02-19T16:38:44.077Z,1.28
2019-02-19T16:41:19.777Z,1.22
2019-02-19T16:43:52.709Z,1.28
2019-02-19T16:46:37.642Z,1.13
2019-02-19T16:49:16.501Z,1.21
2019-02-19T16:51:49.368Z,1.17
2019-02-19T16:54:27.851Z,1.06
2019-02-19T16:57:06.722Z,1.08
2019-02-19T16:59:39.818Z,1.06
2019-02-19T17:02:28.002Z,1.06
2019-02-19T17:05:06.585Z,1.13
2019-02-19T17:07:39.504Z,1.07
2019-02-19T17:10:28.302Z,0.95
2019-02-19T17:13:01.263Z,0.99
2019-02-19T17:15:34.211Z,0.92
2019-02-19T17:18:13.091Z,0.92
2019-02-19T17:20:55.134Z,0.86
2019-02-19T17:23:31.074Z,0.88
2019-02-19T17:26:16.274Z,0.93
2019-02-19T17:28:58.198Z,0.90
2019-02-19T17:31:48.124Z,0.86
2019-02-19T17:34:29.904Z,0.85
2019-02-19T17:37:02.905Z,0.92
2019-02-19T17:39:52.286Z,0.90
2019-02-19T17:42:25.252Z,0.78
2019-02-19T17:45:07.210Z,0.67
2019-02-19T17:47:52.331Z,0.70
2019-02-19T17:50:41.265Z,0.73
2019-02-19T17:53:32.133Z,0.71
2019-02-19T17:56:07.666Z,0.74
2019-02-19T17:58:57.770Z,0.73
2019-02-19T18:01:31.064Z,0.77
2019-02-19T18:04:06.895Z,0.69
2019-02-19T18:06:39.817Z,0.68
2019-02-19T18:09:29.287Z,0.68
2019-02-19T18:12:02.317Z,0.59
2019-02-19T18:14:35.222Z,0.66
2019-02-19T18:17:20.009Z,0.61
2019-02-19T18:19:51.332Z,0.57
2019-02-19T18:22:22.780Z,0.53
2019-02-19T18:24:54.202Z,0.54
2019-02-19T18:27:25.571Z,0.41
2019-02-19T18:29:56.954Z,0.29
2019-02-19T18:32:28.322Z,0.27
2019-02-19T18:34:59.736Z,0.30
2019-02-19T18:37:31.105Z,0.27
2019-02-19T18:40:02.580Z,0.21
2019-02-19T18:42:35.753Z,0.14
2019-02-19T18:45:08.885Z,0.13
2019-02-19T18:47:40.222Z,0.16
2019-02-19T18:50:11.590Z,0.16
2019-02-19T18:52:42.995Z,0.11
2019-02-19T18:55:14.325Z,0.04
2019-02-19T18:57:45.756Z,-0.05
2019-02-19T19:00:17.407Z,0.00
2019-02-19T19:02:48.787Z,-0.28
2019-02-19T19:05:20.205Z,-0.27
2019-02-19T19:07:51.714Z,-0.38
2019-02-19T19:10:23.057Z,-0.54
2019-02-19T19:12:54.448Z,-0.63
2019-02-19T19:15:25.853Z,-0.71
2019-02-19T19:17:57.312Z,-0.65
2019-02-19T19:20:28.694Z,-0.57
2019-02-19T19:23:00.063Z,-0.78
2019-02-19T19:25:31.479Z,-0.73
2019-02-19T19:28:02.857Z,-0.80
2019-02-19T19:30:34.202Z,-0.74
2019-02-19T19:33:05.708Z,-0.49
2019-02-19T19:35:37.172Z,-0.33
2019-02-19T19:38:08.615Z,-0.24
2019-02-19T19:40:39.979Z,-0.07
2019-02-19T19:43:11.426Z,-0.19
2019-02-19T19:45:42.794Z,-0.13
2019-02-19T19:48:14.196Z,-0.09
2019-02-19T19:50:45.530Z,-0.03
2019-02-19T19:53:16.940Z,0.03
2019-02-19T19:55:48.272Z,-0.02
2019-02-19T19:58:19.808Z,0.01
2019-02-19T20:00:51.183Z,0.02
2019-02-19T20:03:22.596Z,0.08
2019-02-19T20:05:53.987Z,0.04
2019-02-19T20:08:25.401Z,0.13
2019-02-19T20:10:56.952Z,0.21
2019-02-19T20:13:28.600Z,0.27
2019-02-19T20:16:00.038Z,0.24
2019-02-19T20:18:38.944Z,0.17
2019-02-19T20:21:04.613Z,0.10
2019-02-19T20:23:36.026Z,0.13
2019-02-19T20:26:07.484Z,0.04
2019-02-19T20:28:38.928Z,-0.03
2019-02-19T20:31:10.375Z,-0.06
2019-02-19T20:33:41.769Z,-0.15
2019-02-19T20:36:13.168Z,-0.17
2019-02-19T20:38:44.577Z,-0.22
2019-02-19T20:41:15.980Z,-0.29
2019-02-19T20:43:47.323Z,-0.34
2019-02-19T20:46:18.668Z,-0.33
2019-02-19T20:48:50.027Z,-0.37
2019-02-19T20:51:22.829Z,-0.41
2019-02-19T20:53:54.281Z,-0.47
2019-02-19T20:56:25.748Z,-0.56
2019-02-19T20:58:57.166Z,-0.56
2019-02-19T21:01:28.902Z,-0.62
2019-02-19T21:04:00.313Z,-0.65
2019-02-19T21:06:31.745Z,-0.68
2019-02-19T21:09:03.091Z,-0.75
2019-02-19T21:11:36.159Z,-0.74
2019-02-19T21:14:08.707Z,-0.78
2019-02-19T21:16:40.932Z,-0.77
2019-02-19T21:19:12.335Z,-0.89
2019-02-19T21:21:45.146Z,-0.88
2019-02-19T21:24:17.764Z,-1.04
2019-02-19T21:26:49.244Z,-0.91
2019-02-19T21:29:21.998Z,-0.95
2019-02-19T21:31:53.513Z,-0.90
2019-02-19T21:34:24.943Z,-0.98
2019-02-19T21:36:56.295Z,-1.13
2019-02-19T21:39:27.689Z,-1.13
2019-02-19T21:41:59.304Z,-1.15
2019-02-19T21:44:30.674Z,-1.14
2019-02-19T21:47:02.068Z,-1.27
2019-02-19T21:49:33.471Z,-1.27
2019-02-19T21:52:04.820Z,-1.26
2019-02-19T21:54:36.197Z,-1.30
2019-02-19T21:57:07.715Z,-1.30
2019-02-19T21:59:39.051Z,-1.35
2019-02-19T22:02:16.265Z,-1.39
2019-02-19T22:04:43.493Z,-1.42
2019-02-19T22:07:14.845Z,-1.39
2019-02-19T22:09:46.244Z,-1.46
2019-02-19T22:12:18.629Z,-1.43
2019-02-19T22:14:50.156Z,-1.47
2019-02-19T22:17:21.550Z,-1.46
2019-02-19T22:20:02.543Z,-1.43
2019-02-19T22:22:26.156Z,-1.42
2019-02-19T22:24:57.542Z,-1.47
2019-02-19T22:27:28.894Z,-1.50
2019-02-19T22:30:00.425Z,-1.69
2019-02-19T22:32:31.761Z,-1.65
2019-02-19T22:35:03.121Z,-1.66
2019-02-19T22:37:34.748Z,-1.61
2019-02-19T22:40:08.179Z,-1.55
2019-02-19T22:42:39.884Z,-1.59
2019-02-19T22:45:11.217Z,-1.53
2019-02-19T22:47:42.609Z,-1.70
2019-02-19T22:50:14.044Z,-1.66
2019-02-19T22:52:45.402Z,-1.68
2019-02-19T22:55:36.661Z,-1.65
2019-02-19T22:58:07.997Z,-1.73
2019-02-19T23:00:49.980Z,-1.74
2019-02-19T23:03:27.079Z,-1.67
2019-02-19T23:05:58.462Z,-1.71
2019-02-19T23:08:30.463Z,-1.74
2019-02-19T23:11:01.116Z,-1.72
2019-02-19T23:13:32.309Z,-1.67
2019-02-19T23:16:03.666Z,-1.69
2019-02-19T23:18:35.092Z,-1.84
2019-02-19T23:21:06.430Z,-1.92
2019-02-19T23:23:37.777Z,-1.87
2019-02-19T23:26:09.216Z,-1.94
2019-02-19T23:28:40.589Z,-1.95
2019-02-19T23:31:11.938Z,-1.90
2019-02-19T23:33:43.349Z,-1.92
2019-02-19T23:36:32.814Z,-2.00
2019-02-19T23:39:05.578Z,-2.00
2019-02-19T23:41:38.564Z,-2.07
2019-02-19T23:44:09.977Z,-2.02
2019-02-19T23:46:44.038Z,-1.98
2019-02-19T23:49:15.559Z,-2.01
2019-02-19T23:51:47.140Z,-2.01
2019-02-19T23:54:18.489Z,-2.11
2019-02-19T23:56:49.954Z,-2.05
2019-02-19T23:59:21.341Z,-2.07
